sensor_id;sensor_type;location;lat;lon;timestamp;P1;durP1;ratioP1;P2;durP2;ratioP2
45388;SDS011;31127;52.078;4.370;2023-11-19T09:40:57;38.92;;;8.10;;
45388;SDS011;31127;52.078;4.370;2023-11-19T09:45:53;30.20;;;8.25;;
45388;SDS011;31127;52.078;4.370;2023-11-19T09:50:50;27.83;;;8.02;;
45388;SDS011;31127;52.078;4.370;2023-11-19T09:56:04;32.20;;;7.32;;
45388;SDS011;31127;52.078;4.370;2023-11-19T10:01:00;29.33;;;7.25;;
45388;SDS011;31127;52.078;4.370;2023-11-19T10:05:58;32.25;;;7.18;;
45388;SDS011;31127;52.078;4.370;2023-11-19T10:10:54;29.40;;;6.25;;
45388;SDS011;31127;52.078;4.370;2023-11-19T10:15:50;30.83;;;7.15;;
45388;SDS011;31127;52.078;4.370;2023-11-19T10:21:05;35.55;;;7.38;;
45388;SDS011;31127;52.078;4.370;2023-11-19T10:26:02;34.53;;;7.97;;
45388;SDS011;31127;52.078;4.370;2023-11-19T10:30:59;27.10;;;6.82;;
45388;SDS011;31127;52.078;4.370;2023-11-19T10:36:15;30.73;;;8.20;;
45388;SDS011;31127;52.078;4.370;2023-11-19T10:41:11;28.67;;;8.02;;
45388;SDS011;31127;52.078;4.370;2023-11-19T10:46:36;27.98;;;7.47;;
45388;SDS011;31127;52.078;4.370;2023-11-19T10:51:51;32.35;;;7.13;;
45388;SDS011;31127;52.078;4.370;2023-11-19T10:57:10;26.80;;;7.13;;
45388;SDS011;31127;52.078;4.370;2023-11-19T11:02:09;29.05;;;6.68;;
45388;SDS011;31127;52.078;4.370;2023-11-19T11:07:05;29.13;;;7.25;;
45388;SDS011;31127;52.078;4.370;2023-11-19T11:12:01;29.90;;;6.35;;
45388;SDS011;31127;52.078;4.370;2023-11-19T11:16:56;28.60;;;7.00;;
45388;SDS011;31127;52.078;4.370;2023-11-19T11:21:53;32.10;;;7.28;;
45388;SDS011;31127;52.078;4.370;2023-11-19T11:37:21;33.58;;;8.20;;
45388;SDS011;31127;52.078;4.370;2023-11-19T11:47:20;35.80;;;9.70;;
45388;SDS011;31127;52.078;4.370;2023-11-19T11:52:15;30.50;;;7.43;;
45388;SDS011;31127;52.078;4.370;2023-11-19T11:57:12;31.40;;;7.30;;
45388;SDS011;31127;52.078;4.370;2023-11-19T12:02:08;30.83;;;7.30;;
45388;SDS011;31127;52.078;4.370;2023-11-19T12:07:05;25.50;;;6.93;;
45388;SDS011;31127;52.078;4.370;2023-11-19T12:12:11;26.60;;;6.10;;
45388;SDS011;31127;52.078;4.370;2023-11-19T12:22:28;36.67;;;6.93;;
45388;SDS011;31127;52.078;4.370;2023-11-19T12:27:24;39.53;;;8.13;;
45388;SDS011;31127;52.078;4.370;2023-11-19T12:32:20;34.60;;;7.40;;
45388;SDS011;31127;52.078;4.370;2023-11-19T12:37:16;41.22;;;8.55;;
45388;SDS011;31127;52.078;4.370;2023-11-19T12:42:35;30.75;;;7.35;;
45388;SDS011;31127;52.078;4.370;2023-11-19T12:48:04;43.22;;;7.85;;
45388;SDS011;31127;52.078;4.370;2023-11-19T12:52:59;38.88;;;8.40;;
45388;SDS011;31127;52.078;4.370;2023-11-19T12:57:55;45.38;;;8.40;;
45388;SDS011;31127;52.078;4.370;2023-11-19T13:02:52;44.78;;;8.65;;
45388;SDS011;31127;52.078;4.370;2023-11-19T13:07:47;37.85;;;8.70;;
45388;SDS011;31127;52.078;4.370;2023-11-19T13:12:43;32.50;;;6.97;;
45388;SDS011;31127;52.078;4.370;2023-11-19T13:17:39;37.90;;;7.18;;
45388;SDS011;31127;52.078;4.370;2023-11-19T13:22:36;42.90;;;8.13;;
45388;SDS011;31127;52.078;4.370;2023-11-19T13:27:51;45.30;;;9.85;;
45388;SDS011;31127;52.078;4.370;2023-11-19T13:32:48;52.00;;;10.52;;
45388;SDS011;31127;52.078;4.370;2023-11-19T13:37:44;51.60;;;10.55;;
45388;SDS011;31127;52.078;4.370;2023-11-19T13:42:40;46.95;;;9.98;;
45388;SDS011;31127;52.078;4.370;2023-11-19T13:47:36;46.70;;;9.30;;
45388;SDS011;31127;52.078;4.370;2023-11-19T13:52:31;44.78;;;10.77;;
45388;SDS011;31127;52.078;4.370;2023-11-19T13:57:47;45.10;;;9.05;;
45388;SDS011;31127;52.078;4.370;2023-11-19T14:03:02;43.38;;;9.27;;
45388;SDS011;31127;52.078;4.370;2023-11-19T14:07:58;43.55;;;9.68;;
45388;SDS011;31127;52.078;4.370;2023-11-19T14:12:53;38.22;;;7.75;;
45388;SDS011;31127;52.078;4.370;2023-11-19T14:17:49;37.58;;;8.45;;
45388;SDS011;31127;52.078;4.370;2023-11-19T14:22:45;50.25;;;10.27;;
45388;SDS011;31127;52.078;4.370;2023-11-19T14:27:44;44.85;;;7.93;;
45388;SDS011;31127;52.078;4.370;2023-11-19T14:32:41;49.50;;;10.13;;
45388;SDS011;31127;52.078;4.370;2023-11-19T14:37:41;54.67;;;10.00;;
45388;SDS011;31127;52.078;4.370;2023-11-19T14:42:56;43.80;;;11.38;;
45388;SDS011;31127;52.078;4.370;2023-11-19T14:47:52;48.58;;;9.25;;
45388;SDS011;31127;52.078;4.370;2023-11-19T14:52:48;45.60;;;8.15;;
45388;SDS011;31127;52.078;4.370;2023-11-19T14:57:43;47.63;;;8.13;;
45388;SDS011;31127;52.078;4.370;2023-11-19T15:02:42;46.20;;;7.85;;
45388;SDS011;31127;52.078;4.370;2023-11-19T15:07:58;53.85;;;9.75;;
45388;SDS011;31127;52.078;4.370;2023-11-19T15:13:14;52.03;;;10.70;;
45388;SDS011;31127;52.078;4.370;2023-11-19T15:18:09;37.42;;;8.02;;
45388;SDS011;31127;52.078;4.370;2023-11-19T15:23:05;51.88;;;8.75;;
45388;SDS011;31127;52.078;4.370;2023-11-19T15:28:21;51.78;;;10.60;;
45388;SDS011;31127;52.078;4.370;2023-11-19T15:33:16;51.80;;;9.35;;
45388;SDS011;31127;52.078;4.370;2023-11-19T15:38:32;48.35;;;8.88;;
45388;SDS011;31127;52.078;4.370;2023-11-19T15:43:28;52.15;;;8.32;;
45388;SDS011;31127;52.078;4.370;2023-11-19T15:48:24;50.75;;;8.60;;
45388;SDS011;31127;52.078;4.370;2023-11-19T15:53:24;40.08;;;8.52;;
45388;SDS011;31127;52.078;4.370;2023-11-19T15:58:19;49.83;;;8.75;;
45388;SDS011;31127;52.078;4.370;2023-11-19T16:03:35;51.10;;;8.35;;
45388;SDS011;31127;52.078;4.370;2023-11-19T16:08:31;53.70;;;10.32;;
45388;SDS011;31127;52.078;4.370;2023-11-19T16:13:27;44.15;;;9.23;;
45388;SDS011;31127;52.078;4.370;2023-11-19T16:18:22;39.67;;;7.97;;
45388;SDS011;31127;52.078;4.370;2023-11-19T16:23:18;54.47;;;10.50;;
45388;SDS011;31127;52.078;4.370;2023-11-19T16:28:14;56.28;;;10.35;;
45388;SDS011;31127;52.078;4.370;2023-11-19T16:33:12;52.88;;;11.25;;
45388;SDS011;31127;52.078;4.370;2023-11-19T16:38:08;52.90;;;9.85;;
45388;SDS011;31127;52.078;4.370;2023-11-19T16:43:07;54.53;;;9.00;;
45388;SDS011;31127;52.078;4.370;2023-11-19T16:48:22;62.70;;;10.23;;
45388;SDS011;31127;52.078;4.370;2023-11-19T16:53:18;61.42;;;10.68;;
45388;SDS011;31127;52.078;4.370;2023-11-19T16:58:14;64.38;;;11.52;;
45388;SDS011;31127;52.078;4.370;2023-11-19T17:03:29;58.28;;;10.35;;
45388;SDS011;31127;52.078;4.370;2023-11-19T17:08:28;55.85;;;10.02;;
45388;SDS011;31127;52.078;4.370;2023-11-19T17:13:27;52.08;;;10.98;;
45388;SDS011;31127;52.078;4.370;2023-11-19T17:18:23;71.63;;;13.90;;
45388;SDS011;31127;52.078;4.370;2023-11-19T17:23:19;67.13;;;11.88;;
45388;SDS011;31127;52.078;4.370;2023-11-19T17:28:15;62.33;;;11.15;;
45388;SDS011;31127;52.078;4.370;2023-11-19T17:33:10;57.08;;;11.27;;
45388;SDS011;31127;52.078;4.370;2023-11-19T17:38:06;57.63;;;9.85;;
45388;SDS011;31127;52.078;4.370;2023-11-19T17:43:01;63.10;;;12.67;;
45388;SDS011;31127;52.078;4.370;2023-11-19T17:48:16;73.22;;;12.60;;
45388;SDS011;31127;52.078;4.370;2023-11-19T17:53:13;52.60;;;10.73;;
45388;SDS011;31127;52.078;4.370;2023-11-19T17:58:08;57.53;;;9.73;;
45388;SDS011;31127;52.078;4.370;2023-11-19T18:03:05;39.75;;;9.70;;
45388;SDS011;31127;52.078;4.370;2023-11-19T18:08:01;40.97;;;7.90;;
45388;SDS011;31127;52.078;4.370;2023-11-19T18:12:57;54.22;;;9.23;;
45388;SDS011;31127;52.078;4.370;2023-11-19T18:17:52;56.45;;;11.45;;
45388;SDS011;31127;52.078;4.370;2023-11-19T18:22:48;51.22;;;9.45;;
45388;SDS011;31127;52.078;4.370;2023-11-19T18:27:43;57.65;;;10.82;;
45388;SDS011;31127;52.078;4.370;2023-11-19T18:32:39;52.47;;;11.80;;
45388;SDS011;31127;52.078;4.370;2023-11-19T18:37:54;49.67;;;8.48;;
45388;SDS011;31127;52.078;4.370;2023-11-19T18:43:10;37.65;;;6.70;;
45388;SDS011;31127;52.078;4.370;2023-11-19T18:48:05;41.88;;;7.88;;
45388;SDS011;31127;52.078;4.370;2023-11-19T18:53:01;28.65;;;6.40;;
45388;SDS011;31127;52.078;4.370;2023-11-19T18:57:58;32.65;;;7.07;;
45388;SDS011;31127;52.078;4.370;2023-11-19T19:02:53;33.92;;;6.50;;
45388;SDS011;31127;52.078;4.370;2023-11-19T19:08:09;41.20;;;7.80;;
45388;SDS011;31127;52.078;4.370;2023-11-19T19:13:05;34.13;;;7.82;;
45388;SDS011;31127;52.078;4.370;2023-11-19T19:18:00;36.65;;;7.18;;
45388;SDS011;31127;52.078;4.370;2023-11-19T19:22:56;39.83;;;7.50;;
45388;SDS011;31127;52.078;4.370;2023-11-19T19:27:51;36.05;;;7.15;;
45388;SDS011;31127;52.078;4.370;2023-11-19T19:32:47;33.67;;;7.30;;
45388;SDS011;31127;52.078;4.370;2023-11-19T19:37:44;39.70;;;7.45;;
45388;SDS011;31127;52.078;4.370;2023-11-19T19:42:40;30.52;;;6.15;;
45388;SDS011;31127;52.078;4.370;2023-11-19T19:47:36;33.72;;;6.88;;
45388;SDS011;31127;52.078;4.370;2023-11-19T19:52:32;24.42;;;5.72;;
45388;SDS011;31127;52.078;4.370;2023-11-19T19:57:29;25.05;;;6.10;;
45388;SDS011;31127;52.078;4.370;2023-11-19T20:02:26;33.97;;;7.85;;
45388;SDS011;31127;52.078;4.370;2023-11-19T20:07:25;24.48;;;6.53;;
45388;SDS011;31127;52.078;4.370;2023-11-19T20:12:21;28.48;;;5.32;;
45388;SDS011;31127;52.078;4.370;2023-11-19T20:17:16;29.67;;;5.90;;
45388;SDS011;31127;52.078;4.370;2023-11-19T20:22:12;29.48;;;5.80;;
45388;SDS011;31127;52.078;4.370;2023-11-19T20:27:07;34.67;;;6.40;;
45388;SDS011;31127;52.078;4.370;2023-11-19T20:32:09;23.40;;;5.07;;
45388;SDS011;31127;52.078;4.370;2023-11-19T20:37:05;28.03;;;5.47;;
45388;SDS011;31127;52.078;4.370;2023-11-19T20:42:20;34.25;;;5.43;;
45388;SDS011;31127;52.078;4.370;2023-11-19T20:47:16;30.52;;;6.15;;
45388;SDS011;31127;52.078;4.370;2023-11-19T20:52:31;25.13;;;5.28;;
45388;SDS011;31127;52.078;4.370;2023-11-19T20:57:27;24.80;;;6.07;;
45388;SDS011;31127;52.078;4.370;2023-11-19T21:02:22;17.08;;;5.13;;
45388;SDS011;31127;52.078;4.370;2023-11-19T21:07:18;23.13;;;4.85;;
45388;SDS011;31127;52.078;4.370;2023-11-19T21:12:13;17.80;;;4.72;;
45388;SDS011;31127;52.078;4.370;2023-11-19T21:17:09;27.88;;;4.82;;
45388;SDS011;31127;52.078;4.370;2023-11-19T21:22:05;29.70;;;6.82;;
45388;SDS011;31127;52.078;4.370;2023-11-19T21:27:00;24.70;;;5.90;;
45388;SDS011;31127;52.078;4.370;2023-11-19T21:32:15;20.65;;;4.45;;
45388;SDS011;31127;52.078;4.370;2023-11-19T21:37:31;29.08;;;6.28;;
45388;SDS011;31127;52.078;4.370;2023-11-19T21:42:27;20.90;;;4.95;;
45388;SDS011;31127;52.078;4.370;2023-11-19T21:47:42;26.60;;;5.55;;
45388;SDS011;31127;52.078;4.370;2023-11-19T21:52:41;26.92;;;6.13;;
45388;SDS011;31127;52.078;4.370;2023-11-19T21:57:37;23.20;;;6.13;;
45388;SDS011;31127;52.078;4.370;2023-11-19T22:02:35;20.15;;;4.60;;
45388;SDS011;31127;52.078;4.370;2023-11-19T22:07:31;17.40;;;5.20;;
45388;SDS011;31127;52.078;4.370;2023-11-19T22:12:47;27.65;;;5.85;;
45388;SDS011;31127;52.078;4.370;2023-11-19T22:17:42;20.58;;;4.10;;
45388;SDS011;31127;52.078;4.370;2023-11-19T22:22:38;25.77;;;5.30;;
45388;SDS011;31127;52.078;4.370;2023-11-19T22:27:54;22.58;;;4.63;;
45388;SDS011;31127;52.078;4.370;2023-11-19T22:32:49;19.17;;;4.45;;
45388;SDS011;31127;52.078;4.370;2023-11-19T22:37:46;19.70;;;4.30;;
45388;SDS011;31127;52.078;4.370;2023-11-19T22:42:41;20.67;;;4.10;;
45388;SDS011;31127;52.078;4.370;2023-11-19T22:47:37;21.15;;;4.43;;
45388;SDS011;31127;52.078;4.370;2023-11-19T22:52:32;18.67;;;4.57;;
45388;SDS011;31127;52.078;4.370;2023-11-19T22:57:28;25.73;;;5.25;;
45388;SDS011;31127;52.078;4.370;2023-11-19T23:02:23;24.92;;;5.30;;
45388;SDS011;31127;52.078;4.370;2023-11-19T23:07:19;22.85;;;6.03;;
45388;SDS011;31127;52.078;4.370;2023-11-19T23:12:35;29.58;;;4.45;;
45388;SDS011;31127;52.078;4.370;2023-11-19T23:17:50;27.20;;;5.90;;
45388;SDS011;31127;52.078;4.370;2023-11-19T23:23:03;25.77;;;4.57;;
45388;SDS011;31127;52.078;4.370;2023-11-19T23:28:01;24.65;;;4.43;;
45388;SDS011;31127;52.078;4.370;2023-11-19T23:32:57;20.20;;;4.82;;
45388;SDS011;31127;52.078;4.370;2023-11-19T23:37:52;23.30;;;4.77;;
45388;SDS011;31127;52.078;4.370;2023-11-19T23:42:47;25.15;;;4.45;;
45388;SDS011;31127;52.078;4.370;2023-11-19T23:47:43;28.05;;;5.70;;
45388;SDS011;31127;52.078;4.370;2023-11-19T23:52:38;31.55;;;4.97;;
45388;SDS011;31127;52.078;4.370;2023-11-19T23:57:54;24.40;;;4.72;;
